sensor_id;sensor_type;location;lat;lon;timestamp;P1;durP1;ratioP1;P2;durP2;ratioP2
11431;SDS011;5772;50.940;6.782;2023-12-20T00:02:09;58.17;;;55.07;;
11431;SDS011;5772;50.940;6.782;2023-12-20T00:04:34;54.10;;;51.10;;
11431;SDS011;5772;50.940;6.782;2023-12-20T00:06:59;54.70;;;51.80;;
11431;SDS011;5772;50.940;6.782;2023-12-20T00:09:25;54.23;;;51.37;;
11431;SDS011;5772;50.940;6.782;2023-12-20T00:11:50;54.87;;;52.07;;
11431;SDS011;5772;50.940;6.782;2023-12-20T00:14:17;54.77;;;51.87;;
11431;SDS011;5772;50.940;6.782;2023-12-20T00:16:42;55.50;;;52.60;;
11431;SDS011;5772;50.940;6.782;2023-12-20T00:19:07;53.60;;;50.73;;
11431;SDS011;5772;50.940;6.782;2023-12-20T00:21:33;56.13;;;52.93;;
11431;SDS011;5772;50.940;6.782;2023-12-20T00:23:58;54.13;;;51.33;;
11431;SDS011;5772;50.940;6.782;2023-12-20T00:26:23;54.53;;;51.73;;
11431;SDS011;5772;50.940;6.782;2023-12-20T00:28:49;57.33;;;54.37;;
11431;SDS011;5772;50.940;6.782;2023-12-20T00:31:15;52.47;;;49.77;;
11431;SDS011;5772;50.940;6.782;2023-12-20T00:33:41;53.23;;;50.57;;
11431;SDS011;5772;50.940;6.782;2023-12-20T00:36:06;50.50;;;47.70;;
11431;SDS011;5772;50.940;6.782;2023-12-20T00:38:31;54.53;;;51.63;;
11431;SDS011;5772;50.940;6.782;2023-12-20T00:40:57;49.90;;;47.40;;
11431;SDS011;5772;50.940;6.782;2023-12-20T00:43:22;52.00;;;49.23;;
11431;SDS011;5772;50.940;6.782;2023-12-20T00:45:48;52.17;;;49.17;;
11431;SDS011;5772;50.940;6.782;2023-12-20T00:48:14;48.63;;;46.00;;
11431;SDS011;5772;50.940;6.782;2023-12-20T00:50:40;51.27;;;48.73;;
11431;SDS011;5772;50.940;6.782;2023-12-20T00:53:05;48.97;;;46.67;;
11431;SDS011;5772;50.940;6.782;2023-12-20T00:55:30;49.97;;;47.47;;
11431;SDS011;5772;50.940;6.782;2023-12-20T00:57:56;49.87;;;47.17;;
11431;SDS011;5772;50.940;6.782;2023-12-20T01:00:21;50.87;;;48.07;;
11431;SDS011;5772;50.940;6.782;2023-12-20T01:02:46;49.87;;;47.37;;
11431;SDS011;5772;50.940;6.782;2023-12-20T01:05:13;49.20;;;46.40;;
11431;SDS011;5772;50.940;6.782;2023-12-20T01:07:39;44.67;;;42.17;;
11431;SDS011;5772;50.940;6.782;2023-12-20T01:10:04;42.43;;;40.10;;
11431;SDS011;5772;50.940;6.782;2023-12-20T01:12:30;45.67;;;43.17;;
11431;SDS011;5772;50.940;6.782;2023-12-20T01:14:55;45.87;;;43.40;;
11431;SDS011;5772;50.940;6.782;2023-12-20T01:17:21;41.50;;;39.17;;
11431;SDS011;5772;50.940;6.782;2023-12-20T01:19:46;42.63;;;40.23;;
11431;SDS011;5772;50.940;6.782;2023-12-20T01:22:13;45.17;;;42.83;;
11431;SDS011;5772;50.940;6.782;2023-12-20T01:24:38;46.10;;;43.70;;
11431;SDS011;5772;50.940;6.782;2023-12-20T01:27:04;49.97;;;47.13;;
11431;SDS011;5772;50.940;6.782;2023-12-20T01:29:29;47.07;;;44.10;;
11431;SDS011;5772;50.940;6.782;2023-12-20T01:31:54;49.23;;;46.23;;
11431;SDS011;5772;50.940;6.782;2023-12-20T01:34:20;48.83;;;45.53;;
11431;SDS011;5772;50.940;6.782;2023-12-20T01:36:45;44.40;;;41.97;;
11431;SDS011;5772;50.940;6.782;2023-12-20T01:39:12;47.23;;;43.93;;
11431;SDS011;5772;50.940;6.782;2023-12-20T01:41:37;49.67;;;46.67;;
11431;SDS011;5772;50.940;6.782;2023-12-20T01:44:02;47.13;;;43.87;;
11431;SDS011;5772;50.940;6.782;2023-12-20T01:46:28;47.43;;;44.50;;
11431;SDS011;5772;50.940;6.782;2023-12-20T01:48:53;46.07;;;43.47;;
11431;SDS011;5772;50.940;6.782;2023-12-20T01:51:19;49.70;;;47.20;;
11431;SDS011;5772;50.940;6.782;2023-12-20T01:53:45;49.47;;;46.73;;
11431;SDS011;5772;50.940;6.782;2023-12-20T01:56:13;47.97;;;44.97;;
11431;SDS011;5772;50.940;6.782;2023-12-20T01:58:39;46.67;;;44.07;;
11431;SDS011;5772;50.940;6.782;2023-12-20T02:01:08;44.07;;;41.87;;
11431;SDS011;5772;50.940;6.782;2023-12-20T02:03:34;45.57;;;43.20;;
11431;SDS011;5772;50.940;6.782;2023-12-20T02:05:59;42.53;;;40.33;;
11431;SDS011;5772;50.940;6.782;2023-12-20T02:08:24;43.63;;;41.53;;
11431;SDS011;5772;50.940;6.782;2023-12-20T02:10:50;45.87;;;43.20;;
11431;SDS011;5772;50.940;6.782;2023-12-20T02:13:17;43.97;;;41.63;;
11431;SDS011;5772;50.940;6.782;2023-12-20T02:15:42;43.43;;;41.07;;
11431;SDS011;5772;50.940;6.782;2023-12-20T02:18:07;39.03;;;37.20;;
11431;SDS011;5772;50.940;6.782;2023-12-20T02:20:33;37.33;;;35.40;;
11431;SDS011;5772;50.940;6.782;2023-12-20T02:22:59;37.27;;;35.47;;
11431;SDS011;5772;50.940;6.782;2023-12-20T02:25:25;37.83;;;35.73;;
11431;SDS011;5772;50.940;6.782;2023-12-20T02:27:50;40.50;;;37.47;;
11431;SDS011;5772;50.940;6.782;2023-12-20T02:30:15;37.43;;;35.33;;
11431;SDS011;5772;50.940;6.782;2023-12-20T02:32:41;40.93;;;38.70;;
11431;SDS011;5772;50.940;6.782;2023-12-20T02:35:06;37.73;;;36.03;;
11431;SDS011;5772;50.940;6.782;2023-12-20T02:37:32;35.93;;;34.23;;
11431;SDS011;5772;50.940;6.782;2023-12-20T02:39:59;37.57;;;35.17;;
11431;SDS011;5772;50.940;6.782;2023-12-20T02:42:24;36.00;;;34.40;;
11431;SDS011;5772;50.940;6.782;2023-12-20T02:44:50;35.77;;;33.97;;
11431;SDS011;5772;50.940;6.782;2023-12-20T02:47:15;36.73;;;34.83;;
11431;SDS011;5772;50.940;6.782;2023-12-20T02:49:40;35.03;;;33.23;;
11431;SDS011;5772;50.940;6.782;2023-12-20T02:52:06;36.03;;;33.93;;
11431;SDS011;5772;50.940;6.782;2023-12-20T02:54:31;39.23;;;37.47;;
11431;SDS011;5772;50.940;6.782;2023-12-20T02:56:58;42.43;;;39.67;;
11431;SDS011;5772;50.940;6.782;2023-12-20T02:59:23;36.83;;;35.23;;
11431;SDS011;5772;50.940;6.782;2023-12-20T03:01:48;43.23;;;40.73;;
11431;SDS011;5772;50.940;6.782;2023-12-20T03:04:14;39.20;;;37.03;;
11431;SDS011;5772;50.940;6.782;2023-12-20T03:06:39;40.87;;;38.40;;
11431;SDS011;5772;50.940;6.782;2023-12-20T03:09:04;40.93;;;39.00;;
11431;SDS011;5772;50.940;6.782;2023-12-20T03:11:30;39.77;;;37.87;;
11431;SDS011;5772;50.940;6.782;2023-12-20T03:13:57;41.83;;;39.63;;
11431;SDS011;5772;50.940;6.782;2023-12-20T03:16:22;43.90;;;41.13;;
11431;SDS011;5772;50.940;6.782;2023-12-20T03:18:48;43.23;;;40.67;;
11431;SDS011;5772;50.940;6.782;2023-12-20T03:21:13;42.77;;;40.83;;
11431;SDS011;5772;50.940;6.782;2023-12-20T03:23:39;40.93;;;39.13;;
11431;SDS011;5772;50.940;6.782;2023-12-20T03:26:06;43.13;;;39.87;;
11431;SDS011;5772;50.940;6.782;2023-12-20T03:28:32;41.30;;;39.17;;
11431;SDS011;5772;50.940;6.782;2023-12-20T03:30:59;41.13;;;38.93;;
11431;SDS011;5772;50.940;6.782;2023-12-20T03:33:24;41.20;;;39.10;;
11431;SDS011;5772;50.940;6.782;2023-12-20T03:35:49;41.43;;;38.37;;
11431;SDS011;5772;50.940;6.782;2023-12-20T03:38:15;40.57;;;38.13;;
11431;SDS011;5772;50.940;6.782;2023-12-20T03:40:40;36.70;;;34.97;;
11431;SDS011;5772;50.940;6.782;2023-12-20T03:43:05;36.67;;;34.87;;
11431;SDS011;5772;50.940;6.782;2023-12-20T03:45:31;38.43;;;36.03;;
11431;SDS011;5772;50.940;6.782;2023-12-20T03:47:57;36.77;;;35.13;;
11431;SDS011;5772;50.940;6.782;2023-12-20T03:50:23;40.27;;;38.17;;
11431;SDS011;5772;50.940;6.782;2023-12-20T03:52:48;36.47;;;34.10;;
11431;SDS011;5772;50.940;6.782;2023-12-20T03:55:13;39.73;;;36.70;;
11431;SDS011;5772;50.940;6.782;2023-12-20T03:57:39;39.00;;;36.67;;
11431;SDS011;5772;50.940;6.782;2023-12-20T04:00:05;39.10;;;37.27;;
11431;SDS011;5772;50.940;6.782;2023-12-20T04:02:31;37.47;;;35.67;;
11431;SDS011;5772;50.940;6.782;2023-12-20T04:04:58;38.47;;;36.53;;
11431;SDS011;5772;50.940;6.782;2023-12-20T04:07:23;40.40;;;38.23;;
11431;SDS011;5772;50.940;6.782;2023-12-20T04:09:49;38.97;;;37.17;;
11431;SDS011;5772;50.940;6.782;2023-12-20T04:12:14;37.40;;;35.70;;
11431;SDS011;5772;50.940;6.782;2023-12-20T04:14:39;36.53;;;34.77;;
11431;SDS011;5772;50.940;6.782;2023-12-20T04:17:05;40.40;;;37.33;;
11431;SDS011;5772;50.940;6.782;2023-12-20T04:19:30;36.63;;;34.27;;
11431;SDS011;5772;50.940;6.782;2023-12-20T04:21:57;40.03;;;37.97;;
11431;SDS011;5772;50.940;6.782;2023-12-20T04:24:22;37.00;;;34.77;;
11431;SDS011;5772;50.940;6.782;2023-12-20T04:26:47;34.67;;;32.87;;
11431;SDS011;5772;50.940;6.782;2023-12-20T04:29:13;37.83;;;35.93;;
11431;SDS011;5772;50.940;6.782;2023-12-20T04:31:38;35.53;;;33.93;;
11431;SDS011;5772;50.940;6.782;2023-12-20T04:34:03;36.17;;;33.67;;
11431;SDS011;5772;50.940;6.782;2023-12-20T04:36:29;35.87;;;33.50;;
11431;SDS011;5772;50.940;6.782;2023-12-20T04:38:55;35.13;;;33.33;;
11431;SDS011;5772;50.940;6.782;2023-12-20T04:41:21;36.33;;;34.20;;
11431;SDS011;5772;50.940;6.782;2023-12-20T04:43:46;36.07;;;33.70;;
11431;SDS011;5772;50.940;6.782;2023-12-20T04:46:11;33.70;;;31.60;;
11431;SDS011;5772;50.940;6.782;2023-12-20T04:48:37;32.63;;;30.90;;
11431;SDS011;5772;50.940;6.782;2023-12-20T04:51:02;33.50;;;31.87;;
11431;SDS011;5772;50.940;6.782;2023-12-20T04:53:28;34.93;;;32.97;;
11431;SDS011;5772;50.940;6.782;2023-12-20T04:55:54;31.70;;;29.87;;
11431;SDS011;5772;50.940;6.782;2023-12-20T04:58:20;33.00;;;30.93;;
11431;SDS011;5772;50.940;6.782;2023-12-20T05:00:45;31.13;;;29.63;;
11431;SDS011;5772;50.940;6.782;2023-12-20T05:03:11;30.53;;;28.50;;
11431;SDS011;5772;50.940;6.782;2023-12-20T05:05:36;32.33;;;30.53;;
11431;SDS011;5772;50.940;6.782;2023-12-20T05:08:01;30.50;;;28.93;;
11431;SDS011;5772;50.940;6.782;2023-12-20T05:10:27;30.33;;;29.03;;
11431;SDS011;5772;50.940;6.782;2023-12-20T05:12:54;33.33;;;31.63;;
11431;SDS011;5772;50.940;6.782;2023-12-20T05:15:19;32.50;;;30.53;;
11431;SDS011;5772;50.940;6.782;2023-12-20T05:17:44;30.60;;;29.10;;
11431;SDS011;5772;50.940;6.782;2023-12-20T05:20:10;28.67;;;27.27;;
11431;SDS011;5772;50.940;6.782;2023-12-20T05:22:35;31.73;;;29.23;;
11431;SDS011;5772;50.940;6.782;2023-12-20T05:25:01;31.33;;;29.83;;
11431;SDS011;5772;50.940;6.782;2023-12-20T05:27:26;31.90;;;29.87;;
11431;SDS011;5772;50.940;6.782;2023-12-20T05:29:53;30.43;;;28.57;;
11431;SDS011;5772;50.940;6.782;2023-12-20T05:32:18;30.90;;;28.80;;
11431;SDS011;5772;50.940;6.782;2023-12-20T05:34:43;32.17;;;29.87;;
11431;SDS011;5772;50.940;6.782;2023-12-20T05:37:09;35.70;;;32.97;;
11431;SDS011;5772;50.940;6.782;2023-12-20T05:39:34;33.60;;;31.13;;
11431;SDS011;5772;50.940;6.782;2023-12-20T05:41:59;31.40;;;29.53;;
11431;SDS011;5772;50.940;6.782;2023-12-20T05:44:25;31.70;;;30.00;;
11431;SDS011;5772;50.940;6.782;2023-12-20T05:46:51;31.20;;;29.00;;
11431;SDS011;5772;50.940;6.782;2023-12-20T05:49:17;34.37;;;32.37;;
11431;SDS011;5772;50.940;6.782;2023-12-20T05:51:42;37.00;;;34.67;;
11431;SDS011;5772;50.940;6.782;2023-12-20T05:54:07;35.23;;;33.03;;
11431;SDS011;5772;50.940;6.782;2023-12-20T05:56:33;36.00;;;33.80;;
11431;SDS011;5772;50.940;6.782;2023-12-20T05:58:59;37.10;;;35.10;;
11431;SDS011;5772;50.940;6.782;2023-12-20T06:01:24;38.13;;;36.27;;
11431;SDS011;5772;50.940;6.782;2023-12-20T06:03:51;37.13;;;34.70;;
11431;SDS011;5772;50.940;6.782;2023-12-20T06:06:16;36.07;;;33.90;;
11431;SDS011;5772;50.940;6.782;2023-12-20T06:08:41;38.93;;;36.10;;
11431;SDS011;5772;50.940;6.782;2023-12-20T06:11:07;38.40;;;35.87;;
11431;SDS011;5772;50.940;6.782;2023-12-20T06:13:32;36.57;;;34.47;;
11431;SDS011;5772;50.940;6.782;2023-12-20T06:15:57;35.60;;;33.63;;
11431;SDS011;5772;50.940;6.782;2023-12-20T06:18:23;36.07;;;33.73;;
11431;SDS011;5772;50.940;6.782;2023-12-20T06:20:49;35.33;;;32.73;;
11431;SDS011;5772;50.940;6.782;2023-12-20T06:23:15;37.23;;;35.17;;
11431;SDS011;5772;50.940;6.782;2023-12-20T06:25:40;36.73;;;34.53;;
11431;SDS011;5772;50.940;6.782;2023-12-20T06:28:06;33.93;;;31.87;;
11431;SDS011;5772;50.940;6.782;2023-12-20T06:30:31;35.70;;;33.03;;
11431;SDS011;5772;50.940;6.782;2023-12-20T06:32:56;35.03;;;33.50;;
11431;SDS011;5772;50.940;6.782;2023-12-20T06:35:22;34.23;;;32.33;;
11431;SDS011;5772;50.940;6.782;2023-12-20T06:37:48;35.40;;;32.80;;
11431;SDS011;5772;50.940;6.782;2023-12-20T06:40:14;34.07;;;32.13;;
11431;SDS011;5772;50.940;6.782;2023-12-20T06:42:39;34.07;;;31.90;;
11431;SDS011;5772;50.940;6.782;2023-12-20T06:45:05;33.17;;;31.43;;
11431;SDS011;5772;50.940;6.782;2023-12-20T06:47:30;34.40;;;32.90;;
11431;SDS011;5772;50.940;6.782;2023-12-20T06:49:56;35.93;;;34.07;;
11431;SDS011;5772;50.940;6.782;2023-12-20T06:52:21;35.03;;;32.77;;
11431;SDS011;5772;50.940;6.782;2023-12-20T06:54:48;35.70;;;33.93;;
11431;SDS011;5772;50.940;6.782;2023-12-20T06:57:13;36.23;;;33.10;;
11431;SDS011;5772;50.940;6.782;2023-12-20T06:59:38;36.47;;;34.53;;
11431;SDS011;5772;50.940;6.782;2023-12-20T07:02:04;36.37;;;34.40;;
11431;SDS011;5772;50.940;6.782;2023-12-20T07:04:29;34.23;;;32.53;;
11431;SDS011;5772;50.940;6.782;2023-12-20T07:06:54;34.97;;;33.03;;
11431;SDS011;5772;50.940;6.782;2023-12-20T07:09:20;34.13;;;32.13;;
11431;SDS011;5772;50.940;6.782;2023-12-20T07:11:46;39.20;;;36.47;;
11431;SDS011;5772;50.940;6.782;2023-12-20T07:14:12;34.50;;;32.60;;
11431;SDS011;5772;50.940;6.782;2023-12-20T07:16:37;36.03;;;33.83;;
11431;SDS011;5772;50.940;6.782;2023-12-20T07:19:02;32.53;;;31.10;;
11431;SDS011;5772;50.940;6.782;2023-12-20T07:21:28;35.00;;;32.63;;
11431;SDS011;5772;50.940;6.782;2023-12-20T07:23:53;34.07;;;31.97;;
11431;SDS011;5772;50.940;6.782;2023-12-20T07:26:18;31.47;;;29.43;;
11431;SDS011;5772;50.940;6.782;2023-12-20T07:28:45;31.93;;;30.10;;
11431;SDS011;5772;50.940;6.782;2023-12-20T07:31:10;31.80;;;30.00;;
11431;SDS011;5772;50.940;6.782;2023-12-20T07:33:36;30.67;;;29.10;;
11431;SDS011;5772;50.940;6.782;2023-12-20T07:36:01;31.77;;;29.33;;
11431;SDS011;5772;50.940;6.782;2023-12-20T07:38:27;30.10;;;28.20;;
11431;SDS011;5772;50.940;6.782;2023-12-20T07:40:52;31.80;;;30.10;;
11431;SDS011;5772;50.940;6.782;2023-12-20T07:43:18;33.70;;;31.60;;
11431;SDS011;5772;50.940;6.782;2023-12-20T07:45:44;32.60;;;30.63;;
11431;SDS011;5772;50.940;6.782;2023-12-20T07:48:10;33.00;;;30.47;;
11431;SDS011;5772;50.940;6.782;2023-12-20T07:50:35;33.77;;;31.83;;
11431;SDS011;5772;50.940;6.782;2023-12-20T07:53:01;32.07;;;30.00;;
11431;SDS011;5772;50.940;6.782;2023-12-20T07:55:27;32.30;;;30.20;;
11431;SDS011;5772;50.940;6.782;2023-12-20T07:57:52;29.90;;;28.03;;
11431;SDS011;5772;50.940;6.782;2023-12-20T08:00:18;30.40;;;28.53;;
11431;SDS011;5772;50.940;6.782;2023-12-20T08:02:44;33.50;;;31.30;;
11431;SDS011;5772;50.940;6.782;2023-12-20T08:05:10;31.53;;;29.80;;
11431;SDS011;5772;50.940;6.782;2023-12-20T08:07:35;31.03;;;29.30;;
11431;SDS011;5772;50.940;6.782;2023-12-20T08:10:00;28.37;;;27.00;;
11431;SDS011;5772;50.940;6.782;2023-12-20T08:12:26;31.07;;;29.40;;
11431;SDS011;5772;50.940;6.782;2023-12-20T08:14:51;30.70;;;28.83;;
11431;SDS011;5772;50.940;6.782;2023-12-20T08:17:16;29.47;;;27.73;;
11431;SDS011;5772;50.940;6.782;2023-12-20T08:19:43;31.27;;;29.20;;
11431;SDS011;5772;50.940;6.782;2023-12-20T08:22:08;28.77;;;26.87;;
11431;SDS011;5772;50.940;6.782;2023-12-20T08:24:34;31.67;;;29.40;;
11431;SDS011;5772;50.940;6.782;2023-12-20T08:26:59;28.83;;;26.93;;
11431;SDS011;5772;50.940;6.782;2023-12-20T08:29:24;29.90;;;27.77;;
11431;SDS011;5772;50.940;6.782;2023-12-20T08:31:51;30.67;;;28.87;;
11431;SDS011;5772;50.940;6.782;2023-12-20T08:34:17;30.37;;;28.50;;
11431;SDS011;5772;50.940;6.782;2023-12-20T08:36:44;28.00;;;26.27;;
11431;SDS011;5772;50.940;6.782;2023-12-20T08:39:09;31.07;;;28.53;;
11431;SDS011;5772;50.940;6.782;2023-12-20T08:41:34;29.37;;;27.97;;
11431;SDS011;5772;50.940;6.782;2023-12-20T08:44:00;28.63;;;27.03;;
11431;SDS011;5772;50.940;6.782;2023-12-20T08:46:25;27.00;;;25.60;;
11431;SDS011;5772;50.940;6.782;2023-12-20T08:48:51;28.03;;;26.50;;
11431;SDS011;5772;50.940;6.782;2023-12-20T08:51:16;30.57;;;28.77;;
11431;SDS011;5772;50.940;6.782;2023-12-20T08:53:43;27.83;;;26.17;;
11431;SDS011;5772;50.940;6.782;2023-12-20T08:56:08;30.03;;;27.80;;
11431;SDS011;5772;50.940;6.782;2023-12-20T08:58:33;26.13;;;24.83;;
11431;SDS011;5772;50.940;6.782;2023-12-20T09:00:59;25.97;;;24.63;;
11431;SDS011;5772;50.940;6.782;2023-12-20T09:03:24;27.10;;;25.60;;
11431;SDS011;5772;50.940;6.782;2023-12-20T09:05:49;27.43;;;26.03;;
11431;SDS011;5772;50.940;6.782;2023-12-20T09:08:15;29.57;;;27.33;;
11431;SDS011;5772;50.940;6.782;2023-12-20T09:10:41;25.80;;;24.27;;
11431;SDS011;5772;50.940;6.782;2023-12-20T09:13:07;25.27;;;23.43;;
11431;SDS011;5772;50.940;6.782;2023-12-20T09:15:32;25.83;;;24.33;;
11431;SDS011;5772;50.940;6.782;2023-12-20T09:17:57;24.27;;;22.80;;
11431;SDS011;5772;50.940;6.782;2023-12-20T09:20:23;26.17;;;24.00;;
11431;SDS011;5772;50.940;6.782;2023-12-20T09:22:48;26.30;;;24.50;;
11431;SDS011;5772;50.940;6.782;2023-12-20T09:25:13;27.20;;;24.57;;
11431;SDS011;5772;50.940;6.782;2023-12-20T09:27:40;24.77;;;22.63;;
11431;SDS011;5772;50.940;6.782;2023-12-20T09:30:06;24.07;;;22.47;;
11431;SDS011;5772;50.940;6.782;2023-12-20T09:32:32;25.10;;;23.53;;
11431;SDS011;5772;50.940;6.782;2023-12-20T09:34:57;23.23;;;21.50;;
11431;SDS011;5772;50.940;6.782;2023-12-20T09:37:22;23.90;;;21.97;;
11431;SDS011;5772;50.940;6.782;2023-12-20T09:39:48;23.13;;;21.93;;
11431;SDS011;5772;50.940;6.782;2023-12-20T09:42:14;26.03;;;24.10;;
11431;SDS011;5772;50.940;6.782;2023-12-20T09:44:43;24.17;;;22.87;;
11431;SDS011;5772;50.940;6.782;2023-12-20T09:47:08;24.87;;;23.33;;
11431;SDS011;5772;50.940;6.782;2023-12-20T09:49:33;24.13;;;22.90;;
11431;SDS011;5772;50.940;6.782;2023-12-20T09:51:59;23.80;;;22.37;;
11431;SDS011;5772;50.940;6.782;2023-12-20T09:54:25;23.73;;;22.27;;
11431;SDS011;5772;50.940;6.782;2023-12-20T09:56:52;22.03;;;20.87;;
11431;SDS011;5772;50.940;6.782;2023-12-20T09:59:17;24.80;;;22.90;;
11431;SDS011;5772;50.940;6.782;2023-12-20T10:01:44;25.97;;;24.50;;
11431;SDS011;5772;50.940;6.782;2023-12-20T10:04:09;25.03;;;23.80;;
11431;SDS011;5772;50.940;6.782;2023-12-20T10:06:35;23.40;;;22.10;;
11431;SDS011;5772;50.940;6.782;2023-12-20T10:09:01;26.53;;;24.97;;
11431;SDS011;5772;50.940;6.782;2023-12-20T10:11:26;24.30;;;22.63;;
11431;SDS011;5772;50.940;6.782;2023-12-20T10:13:52;22.60;;;21.40;;
11431;SDS011;5772;50.940;6.782;2023-12-20T10:16:17;24.37;;;22.67;;
11431;SDS011;5772;50.940;6.782;2023-12-20T10:18:44;23.83;;;22.73;;
11431;SDS011;5772;50.940;6.782;2023-12-20T10:21:10;23.40;;;21.43;;
11431;SDS011;5772;50.940;6.782;2023-12-20T10:23:35;24.20;;;22.60;;
11431;SDS011;5772;50.940;6.782;2023-12-20T10:26:01;23.10;;;21.97;;
11431;SDS011;5772;50.940;6.782;2023-12-20T10:28:26;23.07;;;21.83;;
11431;SDS011;5772;50.940;6.782;2023-12-20T10:30:58;23.60;;;22.37;;
11431;SDS011;5772;50.940;6.782;2023-12-20T10:33:23;24.60;;;23.30;;
11431;SDS011;5772;50.940;6.782;2023-12-20T10:35:50;24.50;;;22.80;;
11431;SDS011;5772;50.940;6.782;2023-12-20T10:38:17;25.20;;;22.70;;
11431;SDS011;5772;50.940;6.782;2023-12-20T10:40:42;21.00;;;19.97;;
11431;SDS011;5772;50.940;6.782;2023-12-20T10:43:10;23.50;;;22.13;;
11431;SDS011;5772;50.940;6.782;2023-12-20T10:45:36;24.27;;;22.90;;
11431;SDS011;5772;50.940;6.782;2023-12-20T10:48:01;23.07;;;21.80;;
11431;SDS011;5772;50.940;6.782;2023-12-20T10:50:27;23.20;;;22.00;;
11431;SDS011;5772;50.940;6.782;2023-12-20T10:52:54;22.77;;;21.37;;
11431;SDS011;5772;50.940;6.782;2023-12-20T10:55:20;22.17;;;21.00;;
11431;SDS011;5772;50.940;6.782;2023-12-20T10:57:45;22.87;;;21.00;;
11431;SDS011;5772;50.940;6.782;2023-12-20T11:00:12;22.77;;;21.37;;
11431;SDS011;5772;50.940;6.782;2023-12-20T11:02:39;21.20;;;20.07;;
11431;SDS011;5772;50.940;6.782;2023-12-20T11:05:06;24.47;;;22.70;;
11431;SDS011;5772;50.940;6.782;2023-12-20T11:07:38;24.40;;;22.67;;
11431;SDS011;5772;50.940;6.782;2023-12-20T11:10:10;22.63;;;21.43;;
11431;SDS011;5772;50.940;6.782;2023-12-20T11:12:39;22.97;;;21.77;;
11431;SDS011;5772;50.940;6.782;2023-12-20T11:15:09;23.10;;;21.30;;
11431;SDS011;5772;50.940;6.782;2023-12-20T11:17:35;22.83;;;21.37;;
11431;SDS011;5772;50.940;6.782;2023-12-20T11:20:04;23.73;;;21.80;;
11431;SDS011;5772;50.940;6.782;2023-12-20T11:22:30;26.07;;;24.57;;
11431;SDS011;5772;50.940;6.782;2023-12-20T11:24:57;24.20;;;22.73;;
11431;SDS011;5772;50.940;6.782;2023-12-20T11:27:24;25.37;;;23.23;;
11431;SDS011;5772;50.940;6.782;2023-12-20T11:29:50;22.50;;;21.30;;
11431;SDS011;5772;50.940;6.782;2023-12-20T11:32:28;25.03;;;23.17;;
11431;SDS011;5772;50.940;6.782;2023-12-20T11:34:54;24.37;;;22.73;;
11431;SDS011;5772;50.940;6.782;2023-12-20T11:37:20;21.63;;;19.97;;
11431;SDS011;5772;50.940;6.782;2023-12-20T11:39:50;25.73;;;23.67;;
11431;SDS011;5772;50.940;6.782;2023-12-20T11:42:19;24.27;;;23.27;;
11431;SDS011;5772;50.940;6.782;2023-12-20T11:44:46;23.43;;;22.23;;
11431;SDS011;5772;50.940;6.782;2023-12-20T11:47:12;24.60;;;23.40;;
11431;SDS011;5772;50.940;6.782;2023-12-20T11:49:37;24.27;;;22.30;;
11431;SDS011;5772;50.940;6.782;2023-12-20T11:52:03;25.93;;;24.13;;
11431;SDS011;5772;50.940;6.782;2023-12-20T11:54:29;24.27;;;23.07;;
11431;SDS011;5772;50.940;6.782;2023-12-20T11:56:56;25.23;;;23.60;;
11431;SDS011;5772;50.940;6.782;2023-12-20T11:59:21;22.70;;;21.50;;
11431;SDS011;5772;50.940;6.782;2023-12-20T12:01:51;23.67;;;21.67;;
11431;SDS011;5772;50.940;6.782;2023-12-20T12:04:16;23.87;;;22.37;;
11431;SDS011;5772;50.940;6.782;2023-12-20T12:06:42;23.77;;;22.50;;
11431;SDS011;5772;50.940;6.782;2023-12-20T12:09:07;23.90;;;22.23;;
11431;SDS011;5772;50.940;6.782;2023-12-20T12:11:32;25.93;;;24.53;;
11431;SDS011;5772;50.940;6.782;2023-12-20T12:13:58;22.53;;;21.27;;
11431;SDS011;5772;50.940;6.782;2023-12-20T12:16:23;24.37;;;23.17;;
11431;SDS011;5772;50.940;6.782;2023-12-20T12:18:56;23.53;;;22.53;;
11431;SDS011;5772;50.940;6.782;2023-12-20T12:21:21;22.90;;;21.80;;
11431;SDS011;5772;50.940;6.782;2023-12-20T12:23:46;26.73;;;25.00;;
11431;SDS011;5772;50.940;6.782;2023-12-20T12:26:12;24.03;;;22.97;;
11431;SDS011;5772;50.940;6.782;2023-12-20T12:28:39;23.03;;;21.77;;
11431;SDS011;5772;50.940;6.782;2023-12-20T12:31:05;24.77;;;23.13;;
11431;SDS011;5772;50.940;6.782;2023-12-20T12:33:30;25.13;;;23.90;;
11431;SDS011;5772;50.940;6.782;2023-12-20T12:35:57;25.73;;;23.57;;
11431;SDS011;5772;50.940;6.782;2023-12-20T12:38:22;22.73;;;21.33;;
11431;SDS011;5772;50.940;6.782;2023-12-20T12:40:49;22.53;;;21.33;;
11431;SDS011;5772;50.940;6.782;2023-12-20T12:43:14;24.30;;;22.40;;
11431;SDS011;5772;50.940;6.782;2023-12-20T12:45:39;22.13;;;21.17;;
11431;SDS011;5772;50.940;6.782;2023-12-20T12:48:05;23.70;;;22.40;;
11431;SDS011;5772;50.940;6.782;2023-12-20T12:50:31;27.80;;;25.40;;
11431;SDS011;5772;50.940;6.782;2023-12-20T12:52:58;26.40;;;24.70;;
11431;SDS011;5772;50.940;6.782;2023-12-20T12:55:23;24.63;;;22.67;;
11431;SDS011;5772;50.940;6.782;2023-12-20T12:57:49;26.90;;;24.60;;
11431;SDS011;5772;50.940;6.782;2023-12-20T13:00:14;26.47;;;24.23;;
11431;SDS011;5772;50.940;6.782;2023-12-20T13:02:40;25.83;;;24.43;;
11431;SDS011;5772;50.940;6.782;2023-12-20T13:05:05;25.70;;;24.00;;
11431;SDS011;5772;50.940;6.782;2023-12-20T13:07:31;28.03;;;25.87;;
11431;SDS011;5772;50.940;6.782;2023-12-20T13:09:58;26.23;;;24.20;;
11431;SDS011;5772;50.940;6.782;2023-12-20T13:12:23;26.17;;;24.97;;
11431;SDS011;5772;50.940;6.782;2023-12-20T13:14:49;26.03;;;24.63;;
11431;SDS011;5772;50.940;6.782;2023-12-20T13:17:14;25.87;;;24.27;;
11431;SDS011;5772;50.940;6.782;2023-12-20T13:19:39;26.47;;;24.60;;
11431;SDS011;5772;50.940;6.782;2023-12-20T13:22:05;25.37;;;24.27;;
11431;SDS011;5772;50.940;6.782;2023-12-20T13:24:30;28.47;;;26.80;;
11431;SDS011;5772;50.940;6.782;2023-12-20T13:26:57;26.80;;;25.17;;
11431;SDS011;5772;50.940;6.782;2023-12-20T13:29:22;29.90;;;28.20;;
11431;SDS011;5772;50.940;6.782;2023-12-20T13:31:48;28.30;;;26.80;;
11431;SDS011;5772;50.940;6.782;2023-12-20T13:34:14;29.97;;;28.13;;
11431;SDS011;5772;50.940;6.782;2023-12-20T13:36:39;30.40;;;28.47;;
11431;SDS011;5772;50.940;6.782;2023-12-20T13:39:05;29.90;;;28.03;;
11431;SDS011;5772;50.940;6.782;2023-12-20T13:41:31;29.37;;;27.77;;
11431;SDS011;5772;50.940;6.782;2023-12-20T13:43:57;30.30;;;27.80;;
11431;SDS011;5772;50.940;6.782;2023-12-20T13:46:23;28.50;;;27.00;;
11431;SDS011;5772;50.940;6.782;2023-12-20T13:48:48;27.30;;;25.80;;
11431;SDS011;5772;50.940;6.782;2023-12-20T13:51:13;27.63;;;26.33;;
11431;SDS011;5772;50.940;6.782;2023-12-20T13:53:39;29.17;;;27.67;;
11431;SDS011;5772;50.940;6.782;2023-12-20T13:56:04;29.13;;;27.53;;
11431;SDS011;5772;50.940;6.782;2023-12-20T13:58:30;29.67;;;27.47;;
11431;SDS011;5772;50.940;6.782;2023-12-20T14:00:57;28.37;;;26.67;;
11431;SDS011;5772;50.940;6.782;2023-12-20T14:03:22;26.93;;;25.43;;
11431;SDS011;5772;50.940;6.782;2023-12-20T14:05:47;27.70;;;26.33;;
11431;SDS011;5772;50.940;6.782;2023-12-20T14:08:13;29.13;;;27.40;;
11431;SDS011;5772;50.940;6.782;2023-12-20T14:10:38;27.90;;;26.43;;
11431;SDS011;5772;50.940;6.782;2023-12-20T14:13:03;27.23;;;25.93;;
11431;SDS011;5772;50.940;6.782;2023-12-20T14:15:29;30.63;;;28.53;;
11431;SDS011;5772;50.940;6.782;2023-12-20T14:17:55;28.53;;;26.60;;
11431;SDS011;5772;50.940;6.782;2023-12-20T14:20:21;26.50;;;24.90;;
11431;SDS011;5772;50.940;6.782;2023-12-20T14:22:46;29.87;;;28.20;;
11431;SDS011;5772;50.940;6.782;2023-12-20T14:25:12;27.67;;;25.97;;